createdAt,value
2022-09-01T00:01:30.120Z,14.28
2022-09-01T00:04:04.165Z,14.25
2022-09-01T00:06:34.820Z,14.21
2022-09-01T00:09:05.374Z,14.18
2022-09-01T00:11:35.059Z,14.16
2022-09-01T00:14:03.713Z,14.12
2022-09-01T00:16:32.915Z,14.07
2022-09-01T00:19:02.715Z,14.04
2022-09-01T00:21:34.487Z,14.00
2022-09-01T00:24:02.735Z,13.98
2022-09-01T00:26:30.480Z,13.96
2022-09-01T00:28:59.664Z,13.93
2022-09-01T00:31:27.854Z,13.89
2022-09-01T00:33:56.170Z,13.86
2022-09-01T00:36:24.586Z,13.82
2022-09-01T00:38:53.094Z,13.79
2022-09-01T00:41:24.452Z,13.76
2022-09-01T00:43:54.588Z,13.72
2022-09-01T00:46:29.016Z,13.69
2022-09-01T00:48:59.896Z,13.67
2022-09-01T00:51:29.106Z,13.64
2022-09-01T00:53:59.750Z,13.62
2022-09-01T00:56:27.524Z,13.59
2022-09-01T00:58:55.534Z,13.57
2022-09-01T01:01:24.572Z,13.56
2022-09-01T01:03:52.311Z,13.53
2022-09-01T01:06:26.833Z,13.49
2022-09-01T01:08:58.932Z,13.47
2022-09-01T01:11:30.178Z,13.45
2022-09-01T01:14:00.871Z,13.44
2022-09-01T01:16:30.510Z,13.43
2022-09-01T01:18:58.531Z,13.42
2022-09-01T01:21:58.456Z,13.41
2022-09-01T01:24:28.225Z,13.40
2022-09-01T01:26:57.412Z,13.41
2022-09-01T01:29:25.565Z,13.43
2022-09-01T01:31:54.523Z,13.43
2022-09-01T01:34:23.419Z,13.43
2022-09-01T01:36:52.082Z,13.45
2022-09-01T01:39:25.371Z,13.45
2022-09-01T01:41:57.480Z,13.45
2022-09-01T01:44:28.395Z,13.46
2022-09-01T01:46:59.925Z,13.45
2022-09-01T01:49:31.119Z,13.48
2022-09-01T01:51:59.111Z,13.49
2022-09-01T01:54:31.375Z,13.51
2022-09-01T01:57:02.097Z,13.53
2022-09-01T01:59:29.901Z,13.54
2022-09-01T02:01:58.450Z,13.54
2022-09-01T02:04:26.241Z,13.56
2022-09-01T02:06:55.885Z,13.58
2022-09-01T02:09:23.932Z,13.59
2022-09-01T02:11:57.155Z,13.60
2022-09-01T02:14:26.532Z,13.61
2022-09-01T02:16:56.014Z,13.61
2022-09-01T02:19:23.955Z,13.61
2022-09-01T02:21:54.377Z,13.62
2022-09-01T02:24:22.116Z,13.64
2022-09-01T02:26:50.071Z,13.64
2022-09-01T02:29:22.019Z,13.65
2022-09-01T02:31:54.846Z,13.64
2022-09-01T02:34:24.598Z,13.66
2022-09-01T02:36:55.994Z,13.67
2022-09-01T02:39:28.160Z,13.68
2022-09-01T02:41:56.580Z,13.70
2022-09-01T02:44:27.863Z,13.72
2022-09-01T02:46:56.961Z,13.74
2022-09-01T02:49:28.280Z,13.75
2022-09-01T02:52:01.907Z,13.77
2022-09-01T02:54:33.490Z,13.80
2022-09-01T02:57:01.929Z,13.80
2022-09-01T02:59:32.143Z,13.82
2022-09-01T03:02:02.779Z,13.84
2022-09-01T03:04:35.404Z,13.86
2022-09-01T03:07:05.059Z,13.88
2022-09-01T03:09:35.163Z,13.90
2022-09-01T03:12:03.180Z,13.91
2022-09-01T03:14:32.024Z,13.93
2022-09-01T03:17:00.692Z,13.94
2022-09-01T03:19:40.536Z,13.95
2022-09-01T03:22:08.557Z,13.96
2022-09-01T03:24:37.211Z,13.97
2022-09-01T03:27:05.141Z,13.98
2022-09-01T03:29:33.241Z,13.99
2022-09-01T03:32:01.685Z,14.02
2022-09-01T03:34:34.390Z,14.02
2022-09-01T03:37:07.905Z,14.03
2022-09-01T03:39:35.856Z,14.03
2022-09-01T03:42:03.548Z,14.03
2022-09-01T03:44:33.995Z,14.03
2022-09-01T03:47:01.651Z,14.06
2022-09-01T03:49:31.756Z,14.07
2022-09-01T03:52:01.271Z,14.08
2022-09-01T03:54:30.620Z,14.08
2022-09-01T03:56:59.950Z,14.09
2022-09-01T03:59:29.956Z,14.11
2022-09-01T04:01:59.863Z,14.12
2022-09-01T04:04:27.950Z,14.13
2022-09-01T04:06:56.989Z,14.13
2022-09-01T04:09:24.675Z,14.14
2022-09-01T04:11:53.055Z,14.15
2022-09-01T04:14:21.812Z,14.16
2022-09-01T04:17:22.500Z,14.18
2022-09-01T04:19:50.129Z,14.18
2022-09-01T04:22:21.098Z,14.20
2022-09-01T04:24:48.829Z,14.20
2022-09-01T04:27:18.495Z,14.24
2022-09-01T04:29:46.928Z,14.24
2022-09-01T04:32:15.778Z,14.25
2022-09-01T04:34:47.013Z,14.27
2022-09-01T04:37:21.188Z,14.28
2022-09-01T04:39:57.132Z,14.28
2022-09-01T04:42:27.293Z,14.30
2022-09-01T04:44:57.545Z,14.31
2022-09-01T04:47:36.326Z,14.33
2022-09-01T04:50:14.022Z,14.34
2022-09-01T04:52:45.933Z,14.35
2022-09-01T04:55:28.729Z,14.37
2022-09-01T04:57:57.775Z,14.40
2022-09-01T05:00:31.885Z,14.41
2022-09-01T05:03:04.379Z,14.44
2022-09-01T05:05:53.987Z,14.45
2022-09-01T05:08:24.899Z,14.48
2022-09-01T05:10:56.892Z,14.50
2022-09-01T05:13:56.204Z,14.53
2022-09-01T05:16:25.797Z,14.56
2022-09-01T05:18:58.403Z,14.59
2022-09-01T05:21:30.791Z,14.62
2022-09-01T05:24:03.863Z,14.64
2022-09-01T05:26:34.624Z,14.65
2022-09-01T05:29:10.621Z,14.69
2022-09-01T05:31:38.980Z,14.72
2022-09-01T05:34:08.011Z,14.76
2022-09-01T05:36:36.280Z,14.79
2022-09-01T05:39:07.599Z,14.83
2022-09-01T05:41:35.781Z,14.86
2022-09-01T05:44:08.112Z,14.88
2022-09-01T05:46:39.455Z,14.92
2022-09-01T05:49:09.250Z,14.95
2022-09-01T05:51:50.279Z,14.99
2022-09-01T05:54:27.454Z,15.03
2022-09-01T05:57:00.160Z,15.08
2022-09-01T05:59:36.040Z,15.12
2022-09-01T06:02:12.352Z,15.20
2022-09-01T06:04:42.161Z,15.25
2022-09-01T06:07:16.476Z,15.32
2022-09-01T06:09:54.082Z,15.39
2022-09-01T06:12:24.958Z,15.44
2022-09-01T06:14:55.415Z,15.51
2022-09-01T06:17:25.993Z,15.60
2022-09-01T06:19:57.635Z,15.66
2022-09-01T06:22:27.976Z,15.74
2022-09-01T06:25:02.218Z,15.81
2022-09-01T06:27:38.746Z,15.85
2022-09-01T06:30:14.951Z,15.89
2022-09-01T06:32:49.710Z,15.92
2022-09-01T06:35:17.981Z,15.94
2022-09-01T06:37:47.158Z,15.96
2022-09-01T06:40:28.699Z,15.99
2022-09-01T06:42:56.893Z,15.99
2022-09-01T06:45:26.126Z,16.01
2022-09-01T06:47:57.735Z,16.03
2022-09-01T06:53:45.546Z,16.06
2022-09-01T06:56:13.506Z,16.07
2022-09-01T06:58:44.984Z,16.10
2022-09-01T07:01:15.444Z,16.12
2022-09-01T07:03:44.069Z,16.15
2022-09-01T07:12:27.876Z,16.25
2022-09-01T07:17:49.019Z,16.31
2022-09-01T07:20:26.124Z,16.33
2022-09-01T07:23:04.402Z,16.38
2022-09-01T07:25:48.387Z,16.42
2022-09-01T07:28:39.828Z,16.47
2022-09-01T07:38:48.062Z,16.64
2022-09-01T07:39:51.990Z,16.72
2022-09-01T07:45:58.325Z,16.83
2022-09-01T07:49:01.317Z,16.89
2022-09-01T07:51:36.903Z,16.93
2022-09-01T07:54:06.166Z,17.02
2022-09-01T07:56:39.734Z,17.09
2022-09-01T07:59:09.503Z,17.20
2022-09-01T08:01:52.595Z,17.29
2022-09-01T08:04:23.021Z,17.38
2022-09-01T08:06:51.828Z,17.44
2022-09-01T08:09:37.195Z,17.51
2022-09-01T08:12:07.306Z,17.60
2022-09-01T08:14:39.054Z,17.69
2022-09-01T08:17:17.482Z,17.81
2022-09-01T08:19:59.332Z,17.93
2022-09-01T08:22:53.173Z,18.09
2022-09-01T08:25:42.103Z,18.26
2022-09-01T08:28:10.089Z,18.38
2022-09-01T08:30:40.587Z,18.51
2022-09-01T08:33:11.742Z,18.65
2022-09-01T08:35:45.330Z,18.81
2022-09-01T08:38:13.128Z,18.93
2022-09-01T08:40:44.107Z,19.04
2022-09-01T08:43:25.796Z,19.20
2022-09-01T08:45:56.726Z,19.33
2022-09-01T08:51:28.412Z,19.57
2022-09-01T08:54:05.622Z,19.70
2022-09-01T08:56:35.457Z,19.80
2022-09-01T08:59:03.888Z,19.90
2022-09-01T09:01:55.341Z,20.09
2022-09-01T09:04:39.736Z,20.25
2022-09-01T09:07:15.166Z,20.40
2022-09-01T09:09:54.280Z,20.58
2022-09-01T09:12:48.905Z,20.73
2022-09-01T09:15:25.512Z,20.86
2022-09-01T09:18:00.991Z,21.00
2022-09-01T09:20:30.463Z,21.16
2022-09-01T09:22:59.642Z,21.27
2022-09-01T09:25:29.714Z,21.39
2022-09-01T09:28:00.993Z,21.51
2022-09-01T09:30:31.446Z,21.63
2022-09-01T09:35:54.361Z,21.88
2022-09-01T09:38:29.012Z,22.03
2022-09-01T09:41:19.875Z,22.13
2022-09-01T09:43:55.909Z,22.22
2022-09-01T09:46:27.502Z,22.31
2022-09-01T09:49:10.007Z,22.38
2022-09-01T09:51:42.305Z,22.50
2022-09-01T09:54:16.548Z,22.61
2022-09-01T09:56:45.591Z,22.73
2022-09-01T09:59:39.810Z,22.82
2022-09-01T10:02:27.410Z,22.92
2022-09-01T10:04:57.223Z,23.03
2022-09-01T10:07:37.861Z,23.15
2022-09-01T10:10:07.917Z,23.30
2022-09-01T10:12:36.060Z,23.36
2022-09-01T10:15:11.661Z,23.49
2022-09-01T10:17:43.520Z,23.61
2022-09-01T10:20:17.003Z,23.69
2022-09-01T10:22:48.589Z,23.83
2022-09-01T10:25:21.729Z,23.87
2022-09-01T10:27:55.034Z,24.00
2022-09-01T10:30:23.592Z,24.14
2022-09-01T10:32:56.415Z,24.34
2022-09-01T10:35:28.080Z,24.49
2022-09-01T10:37:59.447Z,24.55
2022-09-01T10:40:43.873Z,24.68
2022-09-01T10:43:36.364Z,24.84
2022-09-01T10:46:50.981Z,24.98
2022-09-01T10:49:35.745Z,24.97
2022-09-01T10:52:07.574Z,25.07
2022-09-01T10:55:02.581Z,25.30
2022-09-01T10:57:42.872Z,25.50
2022-09-01T11:01:10.530Z,25.71
2022-09-01T11:03:57.662Z,25.96
2022-09-01T11:07:11.916Z,26.13
2022-09-01T11:09:41.947Z,26.27
2022-09-01T11:12:29.133Z,26.34
2022-09-01T11:15:00.106Z,26.39
2022-09-01T11:17:33.580Z,26.45
2022-09-01T11:20:08.764Z,26.50
2022-09-01T11:22:40.734Z,26.64
2022-09-01T11:25:41.421Z,26.83
2022-09-01T11:28:44.109Z,26.88
2022-09-01T11:31:24.009Z,27.01
2022-09-01T11:34:04.696Z,27.14
2022-09-01T11:36:36.152Z,27.27
2022-09-01T11:39:08.320Z,27.17
2022-09-01T11:41:55.769Z,26.82
2022-09-01T11:44:32.853Z,26.99
2022-09-01T11:47:07.018Z,27.13
2022-09-01T11:49:41.643Z,27.14
2022-09-01T11:52:16.951Z,27.24
2022-09-01T11:54:46.533Z,27.41
2022-09-01T11:57:23.734Z,27.71
2022-09-01T11:59:53.332Z,27.92
2022-09-01T12:02:25.222Z,27.98
2022-09-01T12:04:54.976Z,28.09
2022-09-01T12:07:31.224Z,28.12
2022-09-01T12:09:59.212Z,28.19
2022-09-01T12:12:33.729Z,28.29
2022-09-01T12:15:07.161Z,28.45
2022-09-01T12:17:35.094Z,28.51
2022-09-01T12:20:30.996Z,28.62
2022-09-01T12:23:02.243Z,28.72
2022-09-01T12:25:33.176Z,28.81
2022-09-01T12:28:01.917Z,28.88
2022-09-01T12:30:35.298Z,28.79
2022-09-01T12:35:57.471Z,29.15
2022-09-01T12:38:31.349Z,29.35
2022-09-01T12:40:59.902Z,29.39
2022-09-01T12:43:37.082Z,29.40
2022-09-01T12:46:09.262Z,29.50
2022-09-01T12:48:40.901Z,29.58
2022-09-01T12:51:20.314Z,29.66
2022-09-01T12:53:54.185Z,29.78
2022-09-01T12:56:27.862Z,29.89
2022-09-01T12:59:14.124Z,29.83
2022-09-01T13:01:44.757Z,29.91
2022-09-01T13:04:25.947Z,30.04
2022-09-01T13:06:54.483Z,30.20
2022-09-01T13:09:22.572Z,30.31
2022-09-01T13:12:07.100Z,30.39
2022-09-01T13:14:35.193Z,30.43
2022-09-01T13:17:04.599Z,30.54
2022-09-01T13:19:32.244Z,30.70
2022-09-01T13:21:59.875Z,30.82
2022-09-01T13:24:30.372Z,31.04
2022-09-01T13:29:47.439Z,31.22
2022-09-01T13:32:18.884Z,31.20
2022-09-01T13:34:50.461Z,30.95
2022-09-01T13:37:19.681Z,30.70
2022-09-01T13:39:48.502Z,30.86
2022-09-01T13:42:16.581Z,31.12
2022-09-01T13:44:44.869Z,31.32
2022-09-01T13:47:28.920Z,31.45
2022-09-01T13:50:08.414Z,30.97
2022-09-01T13:52:39.663Z,30.83
2022-09-01T13:55:08.958Z,30.38
2022-09-01T13:57:37.042Z,30.23
2022-09-01T14:00:07.727Z,30.32
2022-09-01T14:02:38.091Z,30.51
2022-09-01T14:05:08.372Z,30.59
2022-09-01T14:07:36.185Z,30.67
2022-09-01T14:10:05.060Z,30.68
2022-09-01T14:12:32.766Z,30.71
2022-09-01T14:15:18.085Z,30.72
2022-09-01T14:17:49.486Z,30.71
2022-09-01T14:20:21.951Z,30.57
2022-09-01T14:22:51.283Z,30.20
2022-09-01T14:25:20.938Z,29.86
2022-09-01T14:27:49.648Z,29.58
2022-09-01T14:30:19.363Z,29.58
2022-09-01T14:32:47.655Z,29.65
2022-09-01T14:35:16.925Z,29.67
2022-09-01T14:37:46.153Z,29.77
2022-09-01T14:40:16.417Z,29.79
2022-09-01T14:42:49.088Z,29.79
2022-09-01T14:45:18.655Z,29.75
2022-09-01T14:47:46.812Z,29.70
2022-09-01T14:50:17.219Z,29.63
2022-09-01T14:52:49.989Z,29.49
2022-09-01T14:55:17.869Z,29.32
2022-09-01T14:57:45.542Z,29.08
2022-09-01T15:00:13.937Z,28.58
2022-09-01T15:02:43.449Z,28.21
2022-09-01T15:05:12.847Z,27.85
2022-09-01T15:07:41.514Z,27.60
2022-09-01T15:10:15.818Z,27.43
2022-09-01T15:12:52.429Z,27.45
2022-09-01T15:15:20.060Z,27.51
2022-09-01T15:17:47.695Z,27.52
2022-09-01T15:20:32.897Z,27.48
2022-09-01T15:23:02.113Z,27.45
2022-09-01T15:25:31.264Z,27.38
2022-09-01T15:27:58.889Z,27.24
2022-09-01T15:30:27.965Z,26.98
2022-09-01T15:32:55.999Z,26.79
2022-09-01T15:35:24.425Z,26.66
2022-09-01T15:37:52.852Z,26.57
2022-09-01T15:40:21.300Z,26.39
2022-09-01T15:42:50.674Z,26.28
2022-09-01T15:45:21.832Z,26.16
2022-09-01T15:47:49.861Z,26.01
2022-09-01T15:50:22.120Z,25.86
2022-09-01T15:52:53.018Z,25.70
2022-09-01T15:55:22.963Z,25.57
2022-09-01T15:57:55.010Z,25.37
2022-09-01T16:00:24.552Z,25.13
2022-09-01T16:02:54.286Z,24.94
2022-09-01T16:05:22.179Z,24.73
2022-09-01T16:07:51.941Z,24.59
2022-09-01T16:10:19.857Z,24.46
2022-09-01T16:12:48.142Z,24.37
2022-09-01T16:15:20.555Z,24.27
2022-09-01T16:18:15.725Z,24.18
2022-09-01T16:20:55.604Z,24.12
2022-09-01T16:23:26.255Z,24.04
2022-09-01T16:25:54.649Z,23.93
2022-09-01T16:28:27.767Z,23.79
2022-09-01T16:31:03.234Z,23.69
2022-09-01T16:33:33.002Z,23.58
2022-09-01T16:36:11.544Z,23.48
2022-09-01T16:38:47.887Z,23.37
2022-09-01T16:41:39.668Z,23.24
2022-09-01T16:44:18.481Z,23.16
2022-09-01T16:46:56.430Z,23.08
2022-09-01T16:49:35.928Z,22.96
2022-09-01T16:52:11.019Z,22.86
2022-09-01T16:54:50.236Z,22.76
2022-09-01T16:57:27.978Z,22.66
2022-09-01T16:59:57.428Z,22.54
2022-09-01T17:02:38.396Z,22.45
2022-09-01T17:05:16.818Z,22.36
2022-09-01T17:07:52.396Z,22.26
2022-09-01T17:10:32.788Z,22.16
2022-09-01T17:13:14.319Z,22.08
2022-09-01T17:15:43.957Z,21.96
2022-09-01T17:18:23.004Z,21.85
2022-09-01T17:20:58.023Z,21.77
2022-09-01T17:23:30.804Z,21.67
2022-09-01T17:26:03.577Z,21.58
2022-09-01T17:28:36.056Z,21.51
2022-09-01T17:31:14.226Z,21.44
2022-09-01T17:33:57.475Z,21.37
2022-09-01T17:36:46.106Z,21.29
2022-09-01T17:39:25.120Z,21.21
2022-09-01T17:41:57.510Z,21.13
2022-09-01T17:44:36.512Z,21.05
2022-09-01T17:47:12.977Z,20.99
2022-09-01T17:49:50.500Z,20.93
2022-09-01T17:52:24.146Z,20.87
2022-09-01T17:55:00.011Z,20.79
2022-09-01T17:57:38.759Z,20.72
2022-09-01T18:00:10.715Z,20.66
2022-09-01T18:03:04.715Z,20.59
2022-09-01T18:05:40.936Z,20.51
2022-09-01T18:08:19.221Z,20.43
2022-09-01T18:10:51.348Z,20.39
2022-09-01T18:13:30.921Z,20.39
2022-09-01T18:16:15.859Z,20.37
2022-09-01T18:18:46.171Z,20.31
2022-09-01T18:21:18.493Z,20.18
2022-09-01T18:23:47.752Z,20.10
2022-09-01T18:26:26.344Z,20.01
2022-09-01T18:28:55.069Z,19.90
2022-09-01T18:31:37.499Z,19.80
2022-09-01T18:34:14.899Z,19.69
2022-09-01T18:36:54.940Z,19.58
2022-09-01T18:39:33.957Z,19.51
2022-09-01T18:42:11.726Z,19.40
2022-09-01T18:44:52.781Z,19.31
2022-09-01T18:47:30.913Z,19.23
2022-09-01T18:50:07.209Z,19.13
2022-09-01T18:53:00.178Z,19.03
2022-09-01T18:55:38.934Z,18.95
2022-09-01T18:58:11.347Z,18.85
2022-09-01T19:00:52.176Z,18.77
2022-09-01T19:03:27.602Z,18.68
2022-09-01T19:06:30.383Z,18.62
2022-09-01T19:09:14.368Z,18.55
2022-09-01T19:11:55.596Z,18.47
2022-09-01T19:14:31.488Z,18.42
2022-09-01T19:17:16.203Z,18.36
2022-09-01T19:19:48.973Z,18.28
2022-09-01T19:22:22.260Z,18.22
2022-09-01T19:25:18.138Z,18.16
2022-09-01T19:27:54.787Z,18.08
2022-09-01T19:30:22.410Z,18.03
2022-09-01T19:32:51.472Z,17.97
2022-09-01T19:35:19.672Z,17.89
2022-09-01T19:37:51.164Z,17.85
2022-09-01T19:40:26.362Z,17.79
2022-09-01T19:42:58.414Z,17.72
2022-09-01T19:45:30.703Z,17.67
2022-09-01T19:48:07.202Z,17.60
2022-09-01T19:50:40.582Z,17.56
2022-09-01T19:53:12.501Z,17.50
2022-09-01T19:55:48.743Z,17.46
2022-09-01T19:58:22.385Z,17.40
2022-09-01T20:00:55.038Z,17.36
2022-09-01T20:03:26.972Z,17.32
2022-09-01T20:05:58.390Z,17.29
2022-09-01T20:08:30.281Z,17.26
2022-09-01T20:11:05.220Z,17.22
2022-09-01T20:14:00.973Z,17.18
2022-09-01T20:16:33.556Z,17.13
2022-09-01T20:19:05.433Z,17.10
2022-09-01T20:21:40.070Z,17.07
2022-09-01T20:24:12.639Z,17.04
2022-09-01T20:26:47.016Z,16.99
2022-09-01T20:29:22.070Z,16.96
2022-09-01T20:31:53.467Z,16.93
2022-09-01T20:34:30.066Z,16.90
2022-09-01T20:37:03.338Z,16.88
2022-09-01T20:39:57.267Z,16.87
2022-09-01T20:42:34.475Z,16.85
2022-09-01T20:45:10.632Z,16.83
2022-09-01T20:47:38.267Z,16.83
2022-09-01T20:50:12.159Z,16.82
2022-09-01T20:52:49.454Z,16.82
2022-09-01T20:55:24.579Z,16.80
2022-09-01T20:58:06.043Z,16.79
2022-09-01T21:00:42.823Z,16.76
2022-09-01T21:03:21.832Z,16.74
2022-09-01T21:06:08.165Z,16.71
2022-09-01T21:08:49.830Z,16.68
2022-09-01T21:11:27.525Z,16.66
2022-09-01T21:14:13.991Z,16.64
2022-09-01T21:16:54.380Z,16.62
2022-09-01T21:19:30.572Z,16.58
2022-09-01T21:22:06.075Z,16.55
2022-09-01T21:24:34.513Z,16.52
2022-09-01T21:27:06.881Z,16.48
2022-09-01T21:29:48.224Z,16.45
2022-09-01T21:32:16.530Z,16.44
2022-09-01T21:34:44.316Z,16.41
2022-09-01T21:37:12.541Z,16.39
2022-09-01T21:39:40.644Z,16.37
2022-09-01T21:42:10.744Z,16.36
2022-09-01T21:44:41.285Z,16.33
2022-09-01T21:47:09.024Z,16.32
2022-09-01T21:49:37.703Z,16.30
2022-09-01T21:52:06.320Z,16.29
2022-09-01T21:54:34.957Z,16.29
2022-09-01T21:57:02.650Z,16.28
2022-09-01T21:59:30.720Z,16.26
2022-09-01T22:02:00.666Z,16.25
2022-09-01T22:04:28.518Z,16.22
2022-09-01T22:06:56.232Z,16.20
2022-09-01T22:09:23.870Z,16.17
2022-09-01T22:11:52.497Z,16.15
2022-09-01T22:14:21.627Z,16.13
2022-09-01T22:16:50.728Z,16.08
2022-09-01T22:19:20.262Z,16.04
2022-09-01T22:21:48.369Z,15.99
2022-09-01T22:24:19.077Z,15.96
2022-09-01T22:26:48.520Z,15.93
2022-09-01T22:29:17.434Z,15.90
2022-09-01T22:31:45.689Z,15.86
2022-09-01T22:34:13.586Z,15.84
2022-09-01T22:36:44.820Z,15.81
2022-09-01T22:39:13.462Z,15.80
2022-09-01T22:41:42.284Z,15.76
2022-09-01T22:44:11.071Z,15.71
2022-09-01T22:46:39.930Z,15.66
2022-09-01T22:49:08.895Z,15.62
2022-09-01T22:51:39.032Z,15.58
2022-09-01T22:54:08.930Z,15.52
2022-09-01T22:56:39.518Z,15.48
2022-09-01T22:59:11.755Z,15.42
2022-09-01T23:01:43.018Z,15.36
2022-09-01T23:04:12.741Z,15.31
2022-09-01T23:06:43.075Z,15.26
2022-09-01T23:09:12.954Z,15.18
2022-09-01T23:11:41.488Z,15.13
2022-09-01T23:14:09.210Z,15.09
2022-09-01T23:16:37.044Z,15.03
2022-09-01T23:19:06.099Z,14.98
2022-09-01T23:21:36.233Z,14.92
2022-09-01T23:24:05.404Z,14.88
2022-09-01T23:26:35.167Z,14.85
2022-09-01T23:29:03.708Z,14.82
2022-09-01T23:31:34.628Z,14.77
2022-09-01T23:34:02.859Z,14.74
2022-09-01T23:36:30.897Z,14.69
2022-09-01T23:38:58.832Z,14.64
2022-09-01T23:41:31.031Z,14.59
2022-09-01T23:44:03.454Z,14.56
2022-09-01T23:46:33.076Z,14.52
2022-09-01T23:49:00.734Z,14.47
2022-09-01T23:51:28.451Z,14.43
2022-09-01T23:53:56.126Z,14.40
2022-09-01T23:56:27.538Z,14.36
2022-09-01T23:58:55.269Z,14.33
